sensor_id;sensor_type;location;lat;lon;timestamp;P1;durP1;ratioP1;P2;durP2;ratioP2
22967;SDS011;11650;48.106;-1.696;2022-12-10T00:01:48;102.97;;;47.70;;
22967;SDS011;11650;48.106;-1.696;2022-12-10T00:04:16;101.77;;;48.87;;
22967;SDS011;11650;48.106;-1.696;2022-12-10T00:06:42;106.53;;;48.37;;
22967;SDS011;11650;48.106;-1.696;2022-12-10T00:09:13;84.57;;;42.37;;
22967;SDS011;11650;48.106;-1.696;2022-12-10T00:11:40;96.30;;;44.53;;
22967;SDS011;11650;48.106;-1.696;2022-12-10T00:14:06;84.67;;;39.23;;
22967;SDS011;11650;48.106;-1.696;2022-12-10T00:16:33;74.57;;;37.27;;
22967;SDS011;11650;48.106;-1.696;2022-12-10T00:18:59;75.10;;;38.10;;
22967;SDS011;11650;48.106;-1.696;2022-12-10T00:21:27;78.53;;;38.00;;
22967;SDS011;11650;48.106;-1.696;2022-12-10T00:23:54;82.87;;;38.97;;
22967;SDS011;11650;48.106;-1.696;2022-12-10T00:26:21;80.07;;;39.37;;
22967;SDS011;11650;48.106;-1.696;2022-12-10T00:28:49;81.43;;;41.40;;
22967;SDS011;11650;48.106;-1.696;2022-12-10T00:31:23;84.33;;;39.90;;
22967;SDS011;11650;48.106;-1.696;2022-12-10T00:33:57;76.07;;;38.10;;
22967;SDS011;11650;48.106;-1.696;2022-12-10T00:36:26;81.70;;;40.07;;
22967;SDS011;11650;48.106;-1.696;2022-12-10T00:38:57;76.03;;;37.90;;
22967;SDS011;11650;48.106;-1.696;2022-12-10T00:41:23;75.97;;;36.30;;
22967;SDS011;11650;48.106;-1.696;2022-12-10T00:43:49;80.57;;;39.07;;
22967;SDS011;11650;48.106;-1.696;2022-12-10T00:46:15;82.10;;;39.23;;
22967;SDS011;11650;48.106;-1.696;2022-12-10T00:48:42;70.33;;;35.87;;
22967;SDS011;11650;48.106;-1.696;2022-12-10T00:51:09;81.97;;;37.90;;
22967;SDS011;11650;48.106;-1.696;2022-12-10T00:53:37;74.90;;;38.10;;
22967;SDS011;11650;48.106;-1.696;2022-12-10T00:56:04;80.70;;;38.43;;
22967;SDS011;11650;48.106;-1.696;2022-12-10T00:58:31;78.17;;;39.27;;
22967;SDS011;11650;48.106;-1.696;2022-12-10T01:01:17;85.50;;;40.67;;
22967;SDS011;11650;48.106;-1.696;2022-12-10T01:03:48;80.27;;;38.60;;
22967;SDS011;11650;48.106;-1.696;2022-12-10T01:08:43;79.53;;;40.03;;
22967;SDS011;11650;48.106;-1.696;2022-12-10T01:11:11;81.70;;;41.47;;
22967;SDS011;11650;48.106;-1.696;2022-12-10T01:13:37;77.00;;;38.53;;
22967;SDS011;11650;48.106;-1.696;2022-12-10T01:16:04;79.97;;;38.70;;
22967;SDS011;11650;48.106;-1.696;2022-12-10T01:18:31;75.17;;;36.50;;
22967;SDS011;11650;48.106;-1.696;2022-12-10T01:21:01;71.93;;;36.23;;
22967;SDS011;11650;48.106;-1.696;2022-12-10T01:23:30;77.23;;;37.20;;
22967;SDS011;11650;48.106;-1.696;2022-12-10T01:25:58;72.67;;;36.93;;
22967;SDS011;11650;48.106;-1.696;2022-12-10T01:28:27;72.57;;;35.87;;
22967;SDS011;11650;48.106;-1.696;2022-12-10T01:30:53;80.53;;;38.27;;
22967;SDS011;11650;48.106;-1.696;2022-12-10T01:33:19;74.90;;;37.97;;
22967;SDS011;11650;48.106;-1.696;2022-12-10T01:35:44;74.80;;;38.37;;
22967;SDS011;11650;48.106;-1.696;2022-12-10T01:38:10;65.60;;;34.40;;
22967;SDS011;11650;48.106;-1.696;2022-12-10T01:40:39;77.43;;;38.97;;
22967;SDS011;11650;48.106;-1.696;2022-12-10T01:43:05;81.57;;;37.90;;
22967;SDS011;11650;48.106;-1.696;2022-12-10T01:45:30;77.37;;;38.87;;
22967;SDS011;11650;48.106;-1.696;2022-12-10T01:47:56;79.93;;;37.60;;
22967;SDS011;11650;48.106;-1.696;2022-12-10T01:50:22;75.83;;;37.27;;
22967;SDS011;11650;48.106;-1.696;2022-12-10T01:52:48;78.57;;;37.50;;
22967;SDS011;11650;48.106;-1.696;2022-12-10T01:58:05;74.27;;;37.83;;
22967;SDS011;11650;48.106;-1.696;2022-12-10T02:00:31;76.93;;;38.17;;
22967;SDS011;11650;48.106;-1.696;2022-12-10T02:03:13;77.50;;;37.50;;
22967;SDS011;11650;48.106;-1.696;2022-12-10T02:05:44;71.53;;;35.60;;
22967;SDS011;11650;48.106;-1.696;2022-12-10T02:13:42;76.07;;;37.10;;
22967;SDS011;11650;48.106;-1.696;2022-12-10T02:16:21;74.70;;;36.50;;
22967;SDS011;11650;48.106;-1.696;2022-12-10T02:18:58;77.83;;;36.63;;
22967;SDS011;11650;48.106;-1.696;2022-12-10T02:21:57;82.40;;;37.60;;
22967;SDS011;11650;48.106;-1.696;2022-12-10T02:24:27;78.07;;;36.57;;
22967;SDS011;11650;48.106;-1.696;2022-12-10T02:26:58;74.60;;;36.23;;
22967;SDS011;11650;48.106;-1.696;2022-12-10T02:29:26;71.60;;;35.63;;
22967;SDS011;11650;48.106;-1.696;2022-12-10T02:31:55;67.60;;;34.73;;
22967;SDS011;11650;48.106;-1.696;2022-12-10T02:34:26;72.93;;;36.27;;
22967;SDS011;11650;48.106;-1.696;2022-12-10T02:36:55;75.43;;;37.33;;
22967;SDS011;11650;48.106;-1.696;2022-12-10T02:39:26;76.50;;;37.00;;
22967;SDS011;11650;48.106;-1.696;2022-12-10T02:41:56;78.13;;;37.17;;
22967;SDS011;11650;48.106;-1.696;2022-12-10T02:44:25;76.07;;;37.87;;
22967;SDS011;11650;48.106;-1.696;2022-12-10T02:46:54;76.90;;;37.17;;
22967;SDS011;11650;48.106;-1.696;2022-12-10T02:49:21;76.50;;;37.83;;
22967;SDS011;11650;48.106;-1.696;2022-12-10T02:51:50;72.20;;;36.37;;
22967;SDS011;11650;48.106;-1.696;2022-12-10T03:00:13;72.60;;;35.17;;
22967;SDS011;11650;48.106;-1.696;2022-12-10T03:10:50;66.97;;;33.47;;
22967;SDS011;11650;48.106;-1.696;2022-12-10T03:13:34;70.30;;;34.07;;
22967;SDS011;11650;48.106;-1.696;2022-12-10T03:16:03;59.63;;;32.47;;
22967;SDS011;11650;48.106;-1.696;2022-12-10T03:18:29;61.13;;;32.90;;
22967;SDS011;11650;48.106;-1.696;2022-12-10T03:21:01;74.50;;;34.77;;
22967;SDS011;11650;48.106;-1.696;2022-12-10T03:23:29;72.43;;;34.37;;
22967;SDS011;11650;48.106;-1.696;2022-12-10T03:25:57;74.27;;;32.57;;
22967;SDS011;11650;48.106;-1.696;2022-12-10T03:28:23;75.77;;;35.87;;
22967;SDS011;11650;48.106;-1.696;2022-12-10T03:30:50;72.50;;;35.17;;
22967;SDS011;11650;48.106;-1.696;2022-12-10T03:33:18;74.63;;;35.70;;
22967;SDS011;11650;48.106;-1.696;2022-12-10T03:35:44;73.73;;;34.23;;
22967;SDS011;11650;48.106;-1.696;2022-12-10T03:38:10;73.40;;;35.70;;
22967;SDS011;11650;48.106;-1.696;2022-12-10T03:40:37;64.70;;;32.73;;
22967;SDS011;11650;48.106;-1.696;2022-12-10T03:43:03;62.47;;;32.83;;
22967;SDS011;11650;48.106;-1.696;2022-12-10T03:45:28;66.43;;;34.60;;
22967;SDS011;11650;48.106;-1.696;2022-12-10T03:47:54;70.00;;;34.17;;
22967;SDS011;11650;48.106;-1.696;2022-12-10T03:50:20;66.33;;;34.33;;
22967;SDS011;11650;48.106;-1.696;2022-12-10T03:52:45;64.27;;;32.57;;
22967;SDS011;11650;48.106;-1.696;2022-12-10T03:55:11;68.70;;;31.30;;
22967;SDS011;11650;48.106;-1.696;2022-12-10T03:57:37;70.83;;;34.53;;
22967;SDS011;11650;48.106;-1.696;2022-12-10T04:00:03;58.97;;;31.67;;
22967;SDS011;11650;48.106;-1.696;2022-12-10T04:02:30;69.33;;;34.80;;
22967;SDS011;11650;48.106;-1.696;2022-12-10T04:04:56;70.37;;;33.57;;
22967;SDS011;11650;48.106;-1.696;2022-12-10T04:07:21;64.00;;;33.60;;
22967;SDS011;11650;48.106;-1.696;2022-12-10T04:09:47;66.60;;;33.37;;
22967;SDS011;11650;48.106;-1.696;2022-12-10T04:12:12;68.30;;;33.60;;
22967;SDS011;11650;48.106;-1.696;2022-12-10T04:14:38;67.93;;;33.17;;
22967;SDS011;11650;48.106;-1.696;2022-12-10T04:17:22;67.73;;;33.33;;
22967;SDS011;11650;48.106;-1.696;2022-12-10T04:19:48;72.10;;;34.50;;
22967;SDS011;11650;48.106;-1.696;2022-12-10T04:22:14;73.10;;;33.07;;
22967;SDS011;11650;48.106;-1.696;2022-12-10T04:24:58;69.77;;;34.03;;
22967;SDS011;11650;48.106;-1.696;2022-12-10T04:27:42;63.40;;;32.43;;
22967;SDS011;11650;48.106;-1.696;2022-12-10T04:30:09;69.80;;;33.20;;
22967;SDS011;11650;48.106;-1.696;2022-12-10T04:32:36;66.50;;;33.67;;
22967;SDS011;11650;48.106;-1.696;2022-12-10T04:35:02;67.83;;;32.60;;
22967;SDS011;11650;48.106;-1.696;2022-12-10T04:37:28;69.43;;;33.90;;
22967;SDS011;11650;48.106;-1.696;2022-12-10T04:39:54;75.87;;;33.53;;
22967;SDS011;11650;48.106;-1.696;2022-12-10T04:42:20;64.50;;;33.27;;
22967;SDS011;11650;48.106;-1.696;2022-12-10T04:44:46;65.03;;;32.37;;
22967;SDS011;11650;48.106;-1.696;2022-12-10T04:47:12;66.43;;;32.47;;
22967;SDS011;11650;48.106;-1.696;2022-12-10T04:49:39;69.77;;;32.40;;
22967;SDS011;11650;48.106;-1.696;2022-12-10T04:52:05;66.43;;;33.20;;
22967;SDS011;11650;48.106;-1.696;2022-12-10T04:54:32;70.70;;;33.60;;
22967;SDS011;11650;48.106;-1.696;2022-12-10T04:56:57;64.40;;;33.23;;
22967;SDS011;11650;48.106;-1.696;2022-12-10T04:59:23;61.60;;;29.97;;
22967;SDS011;11650;48.106;-1.696;2022-12-10T05:01:49;60.13;;;31.37;;
22967;SDS011;11650;48.106;-1.696;2022-12-10T05:04:15;67.10;;;30.53;;
22967;SDS011;11650;48.106;-1.696;2022-12-10T05:06:42;62.20;;;31.93;;
22967;SDS011;11650;48.106;-1.696;2022-12-10T05:09:12;57.40;;;30.30;;
22967;SDS011;11650;48.106;-1.696;2022-12-10T05:11:38;62.03;;;31.73;;
22967;SDS011;11650;48.106;-1.696;2022-12-10T05:14:04;61.83;;;30.67;;
22967;SDS011;11650;48.106;-1.696;2022-12-10T05:16:31;61.80;;;30.80;;
22967;SDS011;11650;48.106;-1.696;2022-12-10T05:18:58;62.87;;;31.03;;
22967;SDS011;11650;48.106;-1.696;2022-12-10T05:21:25;57.83;;;30.43;;
22967;SDS011;11650;48.106;-1.696;2022-12-10T05:24:11;60.30;;;31.03;;
22967;SDS011;11650;48.106;-1.696;2022-12-10T05:26:37;58.63;;;31.30;;
22967;SDS011;11650;48.106;-1.696;2022-12-10T05:29:03;61.30;;;30.13;;
22967;SDS011;11650;48.106;-1.696;2022-12-10T05:31:29;62.67;;;31.43;;
22967;SDS011;11650;48.106;-1.696;2022-12-10T05:33:55;58.87;;;31.03;;
22967;SDS011;11650;48.106;-1.696;2022-12-10T05:36:23;59.57;;;32.13;;
22967;SDS011;11650;48.106;-1.696;2022-12-10T05:38:51;59.63;;;30.53;;
22967;SDS011;11650;48.106;-1.696;2022-12-10T05:41:18;59.17;;;30.63;;
22967;SDS011;11650;48.106;-1.696;2022-12-10T05:43:46;63.07;;;31.03;;
22967;SDS011;11650;48.106;-1.696;2022-12-10T05:46:13;54.43;;;28.83;;
22967;SDS011;11650;48.106;-1.696;2022-12-10T05:48:43;59.20;;;29.30;;
22967;SDS011;11650;48.106;-1.696;2022-12-10T05:51:10;60.03;;;30.87;;
22967;SDS011;11650;48.106;-1.696;2022-12-10T05:53:38;56.17;;;29.10;;
22967;SDS011;11650;48.106;-1.696;2022-12-10T05:56:09;59.10;;;30.23;;
22967;SDS011;11650;48.106;-1.696;2022-12-10T05:58:36;61.20;;;30.83;;
22967;SDS011;11650;48.106;-1.696;2022-12-10T06:01:09;57.20;;;30.13;;
22967;SDS011;11650;48.106;-1.696;2022-12-10T06:03:40;57.20;;;29.73;;
22967;SDS011;11650;48.106;-1.696;2022-12-10T06:06:07;56.80;;;29.00;;
22967;SDS011;11650;48.106;-1.696;2022-12-10T06:08:33;58.80;;;29.80;;
22967;SDS011;11650;48.106;-1.696;2022-12-10T06:11:06;60.33;;;30.33;;
22967;SDS011;11650;48.106;-1.696;2022-12-10T06:13:34;57.33;;;28.77;;
22967;SDS011;11650;48.106;-1.696;2022-12-10T06:16:07;62.57;;;30.60;;
22967;SDS011;11650;48.106;-1.696;2022-12-10T06:18:34;56.17;;;28.97;;
22967;SDS011;11650;48.106;-1.696;2022-12-10T06:21:04;59.83;;;30.33;;
22967;SDS011;11650;48.106;-1.696;2022-12-10T06:23:30;55.47;;;28.47;;
22967;SDS011;11650;48.106;-1.696;2022-12-10T06:25:56;61.60;;;29.60;;
22967;SDS011;11650;48.106;-1.696;2022-12-10T06:28:22;59.13;;;30.23;;
22967;SDS011;11650;48.106;-1.696;2022-12-10T06:30:47;58.23;;;28.87;;
22967;SDS011;11650;48.106;-1.696;2022-12-10T06:33:13;51.40;;;27.57;;
22967;SDS011;11650;48.106;-1.696;2022-12-10T06:35:38;57.23;;;29.63;;
22967;SDS011;11650;48.106;-1.696;2022-12-10T06:38:04;53.83;;;28.27;;
22967;SDS011;11650;48.106;-1.696;2022-12-10T06:40:30;57.83;;;29.23;;
22967;SDS011;11650;48.106;-1.696;2022-12-10T06:42:55;54.30;;;27.97;;
22967;SDS011;11650;48.106;-1.696;2022-12-10T06:45:21;55.30;;;28.30;;
22967;SDS011;11650;48.106;-1.696;2022-12-10T06:47:46;51.03;;;26.67;;
22967;SDS011;11650;48.106;-1.696;2022-12-10T06:50:12;58.40;;;27.67;;
22967;SDS011;11650;48.106;-1.696;2022-12-10T06:52:38;57.60;;;28.63;;
22967;SDS011;11650;48.106;-1.696;2022-12-10T06:55:03;55.37;;;28.27;;
22967;SDS011;11650;48.106;-1.696;2022-12-10T06:57:29;59.33;;;28.37;;
22967;SDS011;11650;48.106;-1.696;2022-12-10T06:59:55;59.03;;;29.77;;
22967;SDS011;11650;48.106;-1.696;2022-12-10T07:02:20;51.40;;;26.30;;
22967;SDS011;11650;48.106;-1.696;2022-12-10T07:04:46;54.37;;;27.37;;
22967;SDS011;11650;48.106;-1.696;2022-12-10T07:07:12;52.57;;;27.00;;
22967;SDS011;11650;48.106;-1.696;2022-12-10T07:09:37;53.93;;;28.60;;
22967;SDS011;11650;48.106;-1.696;2022-12-10T07:12:03;49.87;;;27.10;;
22967;SDS011;11650;48.106;-1.696;2022-12-10T07:14:29;58.30;;;29.70;;
22967;SDS011;11650;48.106;-1.696;2022-12-10T07:16:55;60.23;;;28.53;;
22967;SDS011;11650;48.106;-1.696;2022-12-10T07:19:21;58.00;;;28.80;;
22967;SDS011;11650;48.106;-1.696;2022-12-10T07:21:47;57.50;;;28.57;;
22967;SDS011;11650;48.106;-1.696;2022-12-10T07:24:14;53.10;;;28.57;;
22967;SDS011;11650;48.106;-1.696;2022-12-10T07:26:42;53.27;;;27.80;;
22967;SDS011;11650;48.106;-1.696;2022-12-10T07:29:11;56.40;;;30.33;;
22967;SDS011;11650;48.106;-1.696;2022-12-10T07:31:39;58.27;;;29.63;;
22967;SDS011;11650;48.106;-1.696;2022-12-10T07:34:05;61.97;;;32.53;;
22967;SDS011;11650;48.106;-1.696;2022-12-10T07:36:31;60.37;;;30.07;;
22967;SDS011;11650;48.106;-1.696;2022-12-10T07:38:57;60.83;;;29.57;;
22967;SDS011;11650;48.106;-1.696;2022-12-10T07:41:23;63.10;;;31.77;;
22967;SDS011;11650;48.106;-1.696;2022-12-10T07:43:50;60.83;;;30.57;;
22967;SDS011;11650;48.106;-1.696;2022-12-10T07:46:23;68.03;;;30.77;;
22967;SDS011;11650;48.106;-1.696;2022-12-10T07:48:50;61.97;;;30.50;;
22967;SDS011;11650;48.106;-1.696;2022-12-10T07:51:17;56.03;;;29.90;;
22967;SDS011;11650;48.106;-1.696;2022-12-10T07:53:44;60.40;;;30.57;;
22967;SDS011;11650;48.106;-1.696;2022-12-10T07:56:10;54.73;;;28.63;;
22967;SDS011;11650;48.106;-1.696;2022-12-10T07:58:36;59.47;;;30.73;;
22967;SDS011;11650;48.106;-1.696;2022-12-10T08:01:06;58.03;;;30.73;;
22967;SDS011;11650;48.106;-1.696;2022-12-10T08:03:32;60.77;;;32.43;;
22967;SDS011;11650;48.106;-1.696;2022-12-10T08:06:02;62.87;;;34.10;;
22967;SDS011;11650;48.106;-1.696;2022-12-10T08:08:29;70.80;;;36.47;;
22967;SDS011;11650;48.106;-1.696;2022-12-10T08:10:54;72.10;;;35.73;;
22967;SDS011;11650;48.106;-1.696;2022-12-10T08:13:20;63.40;;;32.93;;
22967;SDS011;11650;48.106;-1.696;2022-12-10T08:15:45;56.77;;;31.20;;
22967;SDS011;11650;48.106;-1.696;2022-12-10T08:18:11;59.63;;;31.50;;
22967;SDS011;11650;48.106;-1.696;2022-12-10T08:20:37;61.07;;;31.07;;
22967;SDS011;11650;48.106;-1.696;2022-12-10T08:23:02;67.80;;;35.40;;
22967;SDS011;11650;48.106;-1.696;2022-12-10T08:25:28;61.50;;;31.87;;
22967;SDS011;11650;48.106;-1.696;2022-12-10T08:27:53;65.13;;;31.00;;
22967;SDS011;11650;48.106;-1.696;2022-12-10T08:30:19;64.83;;;32.37;;
22967;SDS011;11650;48.106;-1.696;2022-12-10T08:32:44;62.67;;;33.30;;
22967;SDS011;11650;48.106;-1.696;2022-12-10T08:35:10;61.47;;;32.20;;
22967;SDS011;11650;48.106;-1.696;2022-12-10T08:37:36;65.33;;;33.47;;
22967;SDS011;11650;48.106;-1.696;2022-12-10T08:40:06;68.67;;;33.10;;
22967;SDS011;11650;48.106;-1.696;2022-12-10T08:42:32;59.07;;;32.20;;
22967;SDS011;11650;48.106;-1.696;2022-12-10T08:44:57;64.97;;;33.53;;
22967;SDS011;11650;48.106;-1.696;2022-12-10T08:47:23;68.93;;;34.63;;
22967;SDS011;11650;48.106;-1.696;2022-12-10T08:49:49;66.53;;;34.57;;
22967;SDS011;11650;48.106;-1.696;2022-12-10T08:52:15;75.23;;;35.17;;
22967;SDS011;11650;48.106;-1.696;2022-12-10T08:54:40;66.73;;;31.23;;
22967;SDS011;11650;48.106;-1.696;2022-12-10T08:57:06;64.90;;;30.97;;
22967;SDS011;11650;48.106;-1.696;2022-12-10T08:59:31;60.93;;;29.37;;
22967;SDS011;11650;48.106;-1.696;2022-12-10T09:01:57;53.97;;;28.60;;
22967;SDS011;11650;48.106;-1.696;2022-12-10T09:04:23;56.33;;;26.77;;
22967;SDS011;11650;48.106;-1.696;2022-12-10T09:06:48;55.07;;;28.33;;
22967;SDS011;11650;48.106;-1.696;2022-12-10T09:09:15;58.47;;;30.57;;
22967;SDS011;11650;48.106;-1.696;2022-12-10T09:11:41;50.83;;;29.47;;
22967;SDS011;11650;48.106;-1.696;2022-12-10T09:14:06;58.33;;;29.77;;
22967;SDS011;11650;48.106;-1.696;2022-12-10T09:16:35;57.57;;;29.63;;
22967;SDS011;11650;48.106;-1.696;2022-12-10T09:19:02;56.50;;;28.43;;
22967;SDS011;11650;48.106;-1.696;2022-12-10T09:21:28;51.00;;;27.97;;
22967;SDS011;11650;48.106;-1.696;2022-12-10T09:23:55;58.40;;;28.90;;
22967;SDS011;11650;48.106;-1.696;2022-12-10T09:26:22;54.83;;;29.13;;
22967;SDS011;11650;48.106;-1.696;2022-12-10T09:28:47;54.90;;;30.87;;
22967;SDS011;11650;48.106;-1.696;2022-12-10T09:31:14;51.77;;;30.33;;
22967;SDS011;11650;48.106;-1.696;2022-12-10T09:33:42;60.47;;;30.00;;
22967;SDS011;11650;48.106;-1.696;2022-12-10T09:36:08;67.07;;;35.00;;
22967;SDS011;11650;48.106;-1.696;2022-12-10T09:38:36;72.80;;;38.30;;
22967;SDS011;11650;48.106;-1.696;2022-12-10T09:41:04;48.73;;;28.03;;
22967;SDS011;11650;48.106;-1.696;2022-12-10T09:43:42;51.80;;;29.57;;
22967;SDS011;11650;48.106;-1.696;2022-12-10T09:51:39;49.70;;;26.53;;
22967;SDS011;11650;48.106;-1.696;2022-12-10T09:54:11;51.20;;;27.80;;
22967;SDS011;11650;48.106;-1.696;2022-12-10T09:56:47;49.77;;;27.63;;
22967;SDS011;11650;48.106;-1.696;2022-12-10T09:59:16;47.03;;;26.40;;
22967;SDS011;11650;48.106;-1.696;2022-12-10T10:01:47;51.00;;;27.43;;
22967;SDS011;11650;48.106;-1.696;2022-12-10T10:04:22;46.93;;;24.93;;
22967;SDS011;11650;48.106;-1.696;2022-12-10T10:06:48;45.00;;;25.47;;
22967;SDS011;11650;48.106;-1.696;2022-12-10T10:09:13;41.23;;;25.63;;
22967;SDS011;11650;48.106;-1.696;2022-12-10T10:11:40;44.83;;;25.43;;
22967;SDS011;11650;48.106;-1.696;2022-12-10T10:14:11;40.80;;;24.10;;
22967;SDS011;11650;48.106;-1.696;2022-12-10T10:19:27;41.53;;;24.27;;
22967;SDS011;11650;48.106;-1.696;2022-12-10T10:21:57;38.43;;;21.60;;
22967;SDS011;11650;48.106;-1.696;2022-12-10T10:24:44;40.03;;;21.97;;
22967;SDS011;11650;48.106;-1.696;2022-12-10T10:27:20;43.23;;;22.97;;
22967;SDS011;11650;48.106;-1.696;2022-12-10T10:29:54;37.07;;;21.87;;
22967;SDS011;11650;48.106;-1.696;2022-12-10T10:32:24;38.13;;;22.43;;
22967;SDS011;11650;48.106;-1.696;2022-12-10T10:34:54;36.87;;;21.63;;
22967;SDS011;11650;48.106;-1.696;2022-12-10T10:39:48;43.30;;;24.67;;
22967;SDS011;11650;48.106;-1.696;2022-12-10T10:42:35;48.27;;;27.03;;
22967;SDS011;11650;48.106;-1.696;2022-12-10T10:45:04;43.47;;;24.70;;
22967;SDS011;11650;48.106;-1.696;2022-12-10T10:47:51;45.63;;;25.30;;
22967;SDS011;11650;48.106;-1.696;2022-12-10T10:53:40;37.13;;;22.40;;
22967;SDS011;11650;48.106;-1.696;2022-12-10T10:56:13;42.50;;;23.07;;
22967;SDS011;11650;48.106;-1.696;2022-12-10T10:59:28;37.97;;;22.17;;
22967;SDS011;11650;48.106;-1.696;2022-12-10T11:01:45;32.03;;;20.40;;
22967;SDS011;11650;48.106;-1.696;2022-12-10T11:04:12;34.00;;;18.83;;
22967;SDS011;11650;48.106;-1.696;2022-12-10T11:06:39;32.13;;;19.13;;
22967;SDS011;11650;48.106;-1.696;2022-12-10T11:09:06;27.83;;;17.27;;
22967;SDS011;11650;48.106;-1.696;2022-12-10T11:15:00;31.40;;;17.50;;
22967;SDS011;11650;48.106;-1.696;2022-12-10T11:19:35;30.30;;;18.73;;
22967;SDS011;11650;48.106;-1.696;2022-12-10T11:22:26;31.13;;;19.10;;
22967;SDS011;11650;48.106;-1.696;2022-12-10T11:24:57;28.33;;;17.67;;
22967;SDS011;11650;48.106;-1.696;2022-12-10T11:27:33;30.27;;;17.73;;
22967;SDS011;11650;48.106;-1.696;2022-12-10T11:30:20;29.87;;;18.63;;
22967;SDS011;11650;48.106;-1.696;2022-12-10T11:33:00;32.97;;;17.13;;
22967;SDS011;11650;48.106;-1.696;2022-12-10T11:36:19;30.20;;;18.13;;
22967;SDS011;11650;48.106;-1.696;2022-12-10T12:00:45;33.00;;;17.43;;
22967;SDS011;11650;48.106;-1.696;2022-12-10T12:03:30;31.13;;;18.30;;
22967;SDS011;11650;48.106;-1.696;2022-12-10T12:06:23;32.83;;;18.57;;
22967;SDS011;11650;48.106;-1.696;2022-12-10T12:14:11;36.03;;;19.83;;
22967;SDS011;11650;48.106;-1.696;2022-12-10T12:16:44;30.30;;;17.33;;
22967;SDS011;11650;48.106;-1.696;2022-12-10T12:21:50;25.60;;;15.93;;
22967;SDS011;11650;48.106;-1.696;2022-12-10T12:24:25;26.43;;;17.53;;
22967;SDS011;11650;48.106;-1.696;2022-12-10T12:27:02;20.07;;;13.93;;
22967;SDS011;11650;48.106;-1.696;2022-12-10T12:29:38;24.17;;;15.33;;
22967;SDS011;11650;48.106;-1.696;2022-12-10T12:32:25;23.57;;;15.57;;
22967;SDS011;11650;48.106;-1.696;2022-12-10T12:35:00;26.17;;;15.47;;
22967;SDS011;11650;48.106;-1.696;2022-12-10T12:37:54;23.53;;;14.93;;
22967;SDS011;11650;48.106;-1.696;2022-12-10T12:40:36;22.27;;;14.27;;
22967;SDS011;11650;48.106;-1.696;2022-12-10T12:43:19;18.73;;;11.17;;
22967;SDS011;11650;48.106;-1.696;2022-12-10T12:45:52;17.87;;;12.77;;
22967;SDS011;11650;48.106;-1.696;2022-12-10T12:48:31;19.80;;;12.93;;
22967;SDS011;11650;48.106;-1.696;2022-12-10T12:51:03;21.23;;;13.13;;
22967;SDS011;11650;48.106;-1.696;2022-12-10T12:53:32;17.93;;;11.27;;
22967;SDS011;11650;48.106;-1.696;2022-12-10T12:59:02;16.90;;;11.33;;
22967;SDS011;11650;48.106;-1.696;2022-12-10T13:01:41;14.83;;;11.00;;
22967;SDS011;11650;48.106;-1.696;2022-12-10T13:04:14;16.47;;;11.33;;
22967;SDS011;11650;48.106;-1.696;2022-12-10T13:06:40;15.53;;;9.73;;
22967;SDS011;11650;48.106;-1.696;2022-12-10T13:15:17;12.50;;;8.47;;
22967;SDS011;11650;48.106;-1.696;2022-12-10T13:20:39;14.97;;;8.40;;
22967;SDS011;11650;48.106;-1.696;2022-12-10T13:36:12;15.23;;;8.27;;
22967;SDS011;11650;48.106;-1.696;2022-12-10T13:38:41;12.53;;;7.67;;
22967;SDS011;11650;48.106;-1.696;2022-12-10T13:41:20;12.27;;;8.13;;
22967;SDS011;11650;48.106;-1.696;2022-12-10T13:44:11;13.07;;;7.63;;
22967;SDS011;11650;48.106;-1.696;2022-12-10T13:47:50;11.83;;;7.20;;
22967;SDS011;11650;48.106;-1.696;2022-12-10T13:50:03;11.20;;;7.27;;
22967;SDS011;11650;48.106;-1.696;2022-12-10T13:55:22;10.57;;;7.00;;
22967;SDS011;11650;48.106;-1.696;2022-12-10T14:00:36;11.93;;;8.10;;
22967;SDS011;11650;48.106;-1.696;2022-12-10T14:03:20;15.53;;;9.27;;
22967;SDS011;11650;48.106;-1.696;2022-12-10T14:09:04;12.87;;;8.53;;
22967;SDS011;11650;48.106;-1.696;2022-12-10T14:11:40;15.30;;;8.70;;
22967;SDS011;11650;48.106;-1.696;2022-12-10T14:14:13;14.23;;;9.13;;
22967;SDS011;11650;48.106;-1.696;2022-12-10T14:17:06;19.60;;;9.47;;
22967;SDS011;11650;48.106;-1.696;2022-12-10T14:19:48;14.67;;;8.97;;
22967;SDS011;11650;48.106;-1.696;2022-12-10T14:22:33;13.57;;;8.93;;
22967;SDS011;11650;48.106;-1.696;2022-12-10T14:25:04;14.63;;;8.33;;
22967;SDS011;11650;48.106;-1.696;2022-12-10T14:27:36;17.10;;;8.83;;
22967;SDS011;11650;48.106;-1.696;2022-12-10T14:33:07;11.90;;;7.53;;
22967;SDS011;11650;48.106;-1.696;2022-12-10T14:35:36;13.73;;;7.47;;
22967;SDS011;11650;48.106;-1.696;2022-12-10T14:38:02;10.67;;;6.33;;
22967;SDS011;11650;48.106;-1.696;2022-12-10T14:40:38;14.20;;;6.17;;
22967;SDS011;11650;48.106;-1.696;2022-12-10T14:43:07;12.63;;;6.43;;
22967;SDS011;11650;48.106;-1.696;2022-12-10T14:45:41;12.10;;;6.60;;
22967;SDS011;11650;48.106;-1.696;2022-12-10T14:48:11;12.60;;;7.37;;
22967;SDS011;11650;48.106;-1.696;2022-12-10T14:50:38;12.87;;;7.60;;
22967;SDS011;11650;48.106;-1.696;2022-12-10T14:53:05;12.57;;;7.47;;
22967;SDS011;11650;48.106;-1.696;2022-12-10T14:55:36;13.23;;;7.53;;
22967;SDS011;11650;48.106;-1.696;2022-12-10T14:58:02;14.60;;;7.70;;
22967;SDS011;11650;48.106;-1.696;2022-12-10T15:00:29;15.20;;;7.67;;
22967;SDS011;11650;48.106;-1.696;2022-12-10T15:02:56;14.43;;;8.30;;
22967;SDS011;11650;48.106;-1.696;2022-12-10T15:05:26;15.33;;;8.20;;
22967;SDS011;11650;48.106;-1.696;2022-12-10T15:07:54;14.80;;;7.67;;
22967;SDS011;11650;48.106;-1.696;2022-12-10T15:10:35;17.60;;;8.53;;
22967;SDS011;11650;48.106;-1.696;2022-12-10T15:13:07;17.33;;;9.53;;
22967;SDS011;11650;48.106;-1.696;2022-12-10T15:15:42;15.77;;;8.73;;
22967;SDS011;11650;48.106;-1.696;2022-12-10T15:25:44;16.53;;;8.97;;
22967;SDS011;11650;48.106;-1.696;2022-12-10T15:31:41;19.03;;;9.30;;
22967;SDS011;11650;48.106;-1.696;2022-12-10T15:33:51;12.57;;;7.23;;
22967;SDS011;11650;48.106;-1.696;2022-12-10T15:36:30;15.77;;;7.80;;
22967;SDS011;11650;48.106;-1.696;2022-12-10T15:38:56;12.03;;;8.13;;
22967;SDS011;11650;48.106;-1.696;2022-12-10T15:41:37;15.50;;;8.67;;
22967;SDS011;11650;48.106;-1.696;2022-12-10T15:44:06;17.97;;;10.43;;
22967;SDS011;11650;48.106;-1.696;2022-12-10T15:46:48;15.80;;;9.80;;
22967;SDS011;11650;48.106;-1.696;2022-12-10T15:49:22;17.13;;;10.43;;
22967;SDS011;11650;48.106;-1.696;2022-12-10T15:51:48;21.57;;;9.63;;
22967;SDS011;11650;48.106;-1.696;2022-12-10T15:59:38;20.63;;;11.97;;
22967;SDS011;11650;48.106;-1.696;2022-12-10T16:02:07;19.53;;;11.53;;
22967;SDS011;11650;48.106;-1.696;2022-12-10T16:04:52;22.00;;;13.00;;
22967;SDS011;11650;48.106;-1.696;2022-12-10T16:07:18;19.93;;;11.60;;
22967;SDS011;11650;48.106;-1.696;2022-12-10T16:09:44;20.93;;;11.37;;
22967;SDS011;11650;48.106;-1.696;2022-12-10T16:12:11;18.97;;;11.40;;
22967;SDS011;11650;48.106;-1.696;2022-12-10T16:14:38;22.03;;;12.67;;
22967;SDS011;11650;48.106;-1.696;2022-12-10T16:17:10;23.20;;;13.03;;
22967;SDS011;11650;48.106;-1.696;2022-12-10T16:19:36;24.57;;;13.20;;
22967;SDS011;11650;48.106;-1.696;2022-12-10T16:22:02;23.37;;;11.73;;
22967;SDS011;11650;48.106;-1.696;2022-12-10T16:24:28;22.07;;;12.17;;
22967;SDS011;11650;48.106;-1.696;2022-12-10T16:26:53;22.03;;;12.97;;
22967;SDS011;11650;48.106;-1.696;2022-12-10T16:29:19;21.90;;;12.30;;
22967;SDS011;11650;48.106;-1.696;2022-12-10T16:31:46;25.07;;;13.03;;
22967;SDS011;11650;48.106;-1.696;2022-12-10T16:34:11;21.20;;;12.23;;